sensor_id;sensor_type;location;lat;lon;timestamp;pressure;altitude;pressure_sealevel;temperature;humidity
48553;BME280;34335;51.566;6.994;2023-05-22T00:01:02;100799.88;;;18.42;100.00
48553;BME280;34335;51.566;6.994;2023-05-22T00:03:29;100795.50;;;18.41;100.00
48553;BME280;34335;51.566;6.994;2023-05-22T00:05:54;100790.75;;;18.52;100.00
48553;BME280;34335;51.566;6.994;2023-05-22T00:08:26;100789.72;;;18.30;100.00
48553;BME280;34335;51.566;6.994;2023-05-22T00:10:51;100789.19;;;18.47;100.00
48553;BME280;34335;51.566;6.994;2023-05-22T00:13:17;100791.22;;;18.38;100.00
48553;BME280;34335;51.566;6.994;2023-05-22T00:15:42;100776.00;;;18.20;100.00
48553;BME280;34335;51.566;6.994;2023-05-22T00:18:07;100785.69;;;18.46;100.00
48553;BME280;34335;51.566;6.994;2023-05-22T00:20:33;100784.00;;;18.44;100.00
48553;BME280;34335;51.566;6.994;2023-05-22T00:23:05;100775.19;;;18.18;100.00
48553;BME280;34335;51.566;6.994;2023-05-22T00:25:37;100767.72;;;18.04;100.00
48553;BME280;34335;51.566;6.994;2023-05-22T00:28:02;100771.06;;;18.09;100.00
48553;BME280;34335;51.566;6.994;2023-05-22T00:30:28;100768.41;;;18.11;100.00
48553;BME280;34335;51.566;6.994;2023-05-22T00:32:54;100763.84;;;17.86;100.00
48553;BME280;34335;51.566;6.994;2023-05-22T00:35:20;100764.03;;;18.10;100.00
48553;BME280;34335;51.566;6.994;2023-05-22T00:37:45;100770.81;;;18.17;100.00
48553;BME280;34335;51.566;6.994;2023-05-22T00:40:12;100762.25;;;18.10;100.00
48553;BME280;34335;51.566;6.994;2023-05-22T00:42:38;100767.97;;;18.25;100.00
48553;BME280;34335;51.566;6.994;2023-05-22T00:45:04;100761.31;;;17.83;100.00
48553;BME280;34335;51.566;6.994;2023-05-22T00:47:31;100769.22;;;17.53;100.00
48553;BME280;34335;51.566;6.994;2023-05-22T00:49:57;100765.28;;;17.36;100.00
48553;BME280;34335;51.566;6.994;2023-05-22T00:52:22;100763.13;;;17.51;100.00
48553;BME280;34335;51.566;6.994;2023-05-22T00:54:49;100763.34;;;17.74;100.00
48553;BME280;34335;51.566;6.994;2023-05-22T00:57:15;100762.66;;;17.98;100.00
48553;BME280;34335;51.566;6.994;2023-05-22T00:59:40;100772.56;;;17.58;100.00
48553;BME280;34335;51.566;6.994;2023-05-22T01:02:06;100775.84;;;17.35;100.00
48553;BME280;34335;51.566;6.994;2023-05-22T01:04:32;100767.44;;;17.53;100.00
48553;BME280;34335;51.566;6.994;2023-05-22T01:06:57;100766.59;;;17.83;100.00
48553;BME280;34335;51.566;6.994;2023-05-22T01:09:23;100768.63;;;17.73;100.00
48553;BME280;34335;51.566;6.994;2023-05-22T01:12:04;100765.91;;;17.76;100.00
48553;BME280;34335;51.566;6.994;2023-05-22T01:14:42;100762.03;;;17.88;100.00
48553;BME280;34335;51.566;6.994;2023-05-22T01:17:41;100764.50;;;17.33;100.00
48553;BME280;34335;51.566;6.994;2023-05-22T01:20:30;100760.13;;;17.33;100.00
48553;BME280;34335;51.566;6.994;2023-05-22T01:23:03;100773.22;;;17.03;100.00
48553;BME280;34335;51.566;6.994;2023-05-22T01:28:43;100763.00;;;17.55;100.00
48553;BME280;34335;51.566;6.994;2023-05-22T01:31:16;100769.31;;;17.18;100.00
48553;BME280;34335;51.566;6.994;2023-05-22T01:33:56;100771.22;;;17.11;100.00
48553;BME280;34335;51.566;6.994;2023-05-22T01:36:27;100756.94;;;17.22;100.00
48553;BME280;34335;51.566;6.994;2023-05-22T01:38:55;100766.28;;;17.32;100.00
48553;BME280;34335;51.566;6.994;2023-05-22T01:41:21;100763.16;;;17.19;100.00
48553;BME280;34335;51.566;6.994;2023-05-22T01:43:46;100767.53;;;17.19;100.00
48553;BME280;34335;51.566;6.994;2023-05-22T01:46:12;100758.75;;;17.20;100.00
48553;BME280;34335;51.566;6.994;2023-05-22T01:48:37;100758.41;;;16.99;100.00
48553;BME280;34335;51.566;6.994;2023-05-22T01:51:07;100750.63;;;16.96;100.00
48553;BME280;34335;51.566;6.994;2023-05-22T01:53:41;100747.34;;;16.88;100.00
48553;BME280;34335;51.566;6.994;2023-05-22T01:56:13;100745.91;;;17.09;100.00
48553;BME280;34335;51.566;6.994;2023-05-22T01:58:47;100750.84;;;17.21;100.00
48553;BME280;34335;51.566;6.994;2023-05-22T02:01:14;100738.50;;;17.23;100.00
48553;BME280;34335;51.566;6.994;2023-05-22T02:03:42;100746.94;;;17.35;100.00
48553;BME280;34335;51.566;6.994;2023-05-22T02:06:12;100744.25;;;17.36;100.00
48553;BME280;34335;51.566;6.994;2023-05-22T02:08:40;100753.19;;;17.31;100.00
48553;BME280;34335;51.566;6.994;2023-05-22T02:11:08;100742.00;;;17.24;100.00
48553;BME280;34335;51.566;6.994;2023-05-22T02:13:35;100739.94;;;17.34;100.00
48553;BME280;34335;51.566;6.994;2023-05-22T02:16:02;100732.19;;;17.31;100.00
48553;BME280;34335;51.566;6.994;2023-05-22T02:18:28;100725.78;;;17.39;100.00
48553;BME280;34335;51.566;6.994;2023-05-22T02:20:57;100730.06;;;17.43;100.00
48553;BME280;34335;51.566;6.994;2023-05-22T02:23:24;100724.88;;;17.40;100.00
48553;BME280;34335;51.566;6.994;2023-05-22T02:25:50;100725.78;;;17.39;100.00
48553;BME280;34335;51.566;6.994;2023-05-22T02:28:15;100719.63;;;17.40;100.00
48553;BME280;34335;51.566;6.994;2023-05-22T02:30:41;100709.28;;;17.34;100.00
48553;BME280;34335;51.566;6.994;2023-05-22T02:33:06;100712.63;;;17.39;100.00
48553;BME280;34335;51.566;6.994;2023-05-22T02:35:33;100710.88;;;17.40;100.00
48553;BME280;34335;51.566;6.994;2023-05-22T02:37:59;100711.78;;;17.39;100.00
48553;BME280;34335;51.566;6.994;2023-05-22T02:40:24;100702.38;;;17.30;100.00
48553;BME280;34335;51.566;6.994;2023-05-22T02:42:50;100703.16;;;17.34;100.00
48553;BME280;34335;51.566;6.994;2023-05-22T02:45:16;100702.16;;;17.38;100.00
48553;BME280;34335;51.566;6.994;2023-05-22T02:47:41;100694.81;;;17.19;100.00
48553;BME280;34335;51.566;6.994;2023-05-22T02:50:07;100693.19;;;17.15;100.00
48553;BME280;34335;51.566;6.994;2023-05-22T02:52:32;100693.16;;;17.17;100.00
48553;BME280;34335;51.566;6.994;2023-05-22T02:54:59;100690.94;;;17.01;100.00
48553;BME280;34335;51.566;6.994;2023-05-22T02:57:24;100686.19;;;17.14;100.00
48553;BME280;34335;51.566;6.994;2023-05-22T02:59:50;100690.53;;;17.17;100.00
48553;BME280;34335;51.566;6.994;2023-05-22T03:02:17;100690.81;;;17.06;100.00
48553;BME280;34335;51.566;6.994;2023-05-22T03:04:43;100687.06;;;17.15;100.00
48553;BME280;34335;51.566;6.994;2023-05-22T03:07:09;100685.28;;;17.15;100.00
48553;BME280;34335;51.566;6.994;2023-05-22T03:09:36;100691.63;;;17.08;100.00
48553;BME280;34335;51.566;6.994;2023-05-22T03:12:01;100679.34;;;17.08;100.00
48553;BME280;34335;51.566;6.994;2023-05-22T03:14:27;100680.50;;;16.98;100.00
48553;BME280;34335;51.566;6.994;2023-05-22T03:16:53;100682.47;;;16.90;100.00
48553;BME280;34335;51.566;6.994;2023-05-22T03:19:20;100685.00;;;16.94;100.00
48553;BME280;34335;51.566;6.994;2023-05-22T03:21:45;100694.56;;;16.97;100.00
48553;BME280;34335;51.566;6.994;2023-05-22T03:24:12;100694.81;;;16.86;100.00
48553;BME280;34335;51.566;6.994;2023-05-22T03:26:38;100696.06;;;16.73;100.00
48553;BME280;34335;51.566;6.994;2023-05-22T03:29:03;100691.66;;;16.73;100.00
48553;BME280;34335;51.566;6.994;2023-05-22T03:31:29;100694.00;;;16.84;100.00
48553;BME280;34335;51.566;6.994;2023-05-22T03:33:57;100692.88;;;16.93;100.00
48553;BME280;34335;51.566;6.994;2023-05-22T03:36:23;100693.44;;;16.73;100.00
48553;BME280;34335;51.566;6.994;2023-05-22T03:38:49;100694.81;;;16.88;100.00
48553;BME280;34335;51.566;6.994;2023-05-22T03:41:14;100697.88;;;16.71;100.00
48553;BME280;34335;51.566;6.994;2023-05-22T03:43:40;100702.91;;;16.78;100.00
48553;BME280;34335;51.566;6.994;2023-05-22T03:46:05;100702.91;;;16.78;100.00
48553;BME280;34335;51.566;6.994;2023-05-22T03:48:32;100703.56;;;16.87;100.00
48553;BME280;34335;51.566;6.994;2023-05-22T03:50:58;100703.72;;;16.80;100.00
48553;BME280;34335;51.566;6.994;2023-05-22T03:53:23;100700.28;;;16.78;100.00
48553;BME280;34335;51.566;6.994;2023-05-22T03:55:48;100705.31;;;16.88;100.00
48553;BME280;34335;51.566;6.994;2023-05-22T03:58:14;100694.16;;;16.78;100.00
48553;BME280;34335;51.566;6.994;2023-05-22T04:00:39;100695.94;;;16.77;100.00
48553;BME280;34335;51.566;6.994;2023-05-22T04:03:04;100692.44;;;16.77;100.00
48553;BME280;34335;51.566;6.994;2023-05-22T04:05:31;100689.00;;;16.75;100.00
48553;BME280;34335;51.566;6.994;2023-05-22T04:07:56;100692.50;;;16.74;100.00
48553;BME280;34335;51.566;6.994;2023-05-22T04:10:22;100694.28;;;16.73;100.00
48553;BME280;34335;51.566;6.994;2023-05-22T04:12:48;100686.66;;;16.64;100.00
48553;BME280;34335;51.566;6.994;2023-05-22T04:15:13;100693.63;;;16.65;100.00
48553;BME280;34335;51.566;6.994;2023-05-22T04:17:39;100687.50;;;16.64;100.00
48553;BME280;34335;51.566;6.994;2023-05-22T04:20:06;100691.06;;;16.63;100.00
48553;BME280;34335;51.566;6.994;2023-05-22T04:22:31;100692.31;;;16.83;100.00
48553;BME280;34335;51.566;6.994;2023-05-22T04:24:57;100696.19;;;16.68;100.00
48553;BME280;34335;51.566;6.994;2023-05-22T04:27:22;100696.25;;;16.65;100.00
48553;BME280;34335;51.566;6.994;2023-05-22T04:29:47;100696.38;;;16.60;100.00
48553;BME280;34335;51.566;6.994;2023-05-22T04:32:14;100706.13;;;16.57;100.00
48553;BME280;34335;51.566;6.994;2023-05-22T04:34:46;100704.44;;;16.54;100.00
48553;BME280;34335;51.566;6.994;2023-05-22T04:37:11;100704.19;;;16.63;100.00
48553;BME280;34335;51.566;6.994;2023-05-22T04:39:39;100704.38;;;16.56;100.00
48553;BME280;34335;51.566;6.994;2023-05-22T04:42:04;100703.38;;;16.61;100.00
48553;BME280;34335;51.566;6.994;2023-05-22T04:44:31;100707.53;;;16.69;100.00
48553;BME280;34335;51.566;6.994;2023-05-22T04:47:01;100708.41;;;16.69;100.00
48553;BME280;34335;51.566;6.994;2023-05-22T04:49:27;100705.44;;;16.81;100.00
48553;BME280;34335;51.566;6.994;2023-05-22T04:51:53;100708.56;;;16.63;100.00
48553;BME280;34335;51.566;6.994;2023-05-22T04:54:19;100709.47;;;16.62;100.00
48553;BME280;34335;51.566;6.994;2023-05-22T04:56:44;100708.94;;;16.49;100.00
48553;BME280;34335;51.566;6.994;2023-05-22T04:59:10;100711.66;;;16.44;100.00
48553;BME280;34335;51.566;6.994;2023-05-22T05:01:35;100710.69;;;16.48;100.00
48553;BME280;34335;51.566;6.994;2023-05-22T05:04:02;100716.63;;;16.57;100.00
48553;BME280;34335;51.566;6.994;2023-05-22T05:06:27;100708.44;;;16.34;100.00
48553;BME280;34335;51.566;6.994;2023-05-22T05:08:52;100706.81;;;16.29;100.00
48553;BME280;34335;51.566;6.994;2023-05-22T05:11:19;100711.06;;;16.34;100.00
48553;BME280;34335;51.566;6.994;2023-05-22T05:13:45;100709.09;;;16.41;100.00
48553;BME280;34335;51.566;6.994;2023-05-22T05:16:10;100715.25;;;16.40;100.00
48553;BME280;34335;51.566;6.994;2023-05-22T05:18:36;100708.16;;;16.45;100.00
48553;BME280;34335;51.566;6.994;2023-05-22T05:21:01;100713.31;;;16.48;100.00
48553;BME280;34335;51.566;6.994;2023-05-22T05:23:26;100715.34;;;16.37;100.00
48553;BME280;34335;51.566;6.994;2023-05-22T05:25:52;100714.56;;;16.33;100.00
48553;BME280;34335;51.566;6.994;2023-05-22T05:28:18;100713.84;;;16.27;100.00
48553;BME280;34335;51.566;6.994;2023-05-22T05:30:44;100721.44;;;16.38;100.00
48553;BME280;34335;51.566;6.994;2023-05-22T05:33:09;100721.63;;;16.64;100.00
48553;BME280;34335;51.566;6.994;2023-05-22T05:35:35;100719.25;;;16.57;100.00
48553;BME280;34335;51.566;6.994;2023-05-22T05:38:00;100708.75;;;16.55;100.00
48553;BME280;34335;51.566;6.994;2023-05-22T05:40:26;100723.09;;;16.76;100.00
48553;BME280;34335;51.566;6.994;2023-05-22T05:42:51;100712.84;;;16.67;100.00
48553;BME280;34335;51.566;6.994;2023-05-22T05:45:16;100717.69;;;16.82;100.00
48553;BME280;34335;51.566;6.994;2023-05-22T05:47:42;100723.88;;;16.80;100.00
48553;BME280;34335;51.566;6.994;2023-05-22T05:50:07;100722.88;;;16.86;100.00
48553;BME280;34335;51.566;6.994;2023-05-22T05:52:33;100723.56;;;16.92;100.00
48553;BME280;34335;51.566;6.994;2023-05-22T05:54:59;100725.16;;;17.00;100.00
48553;BME280;34335;51.566;6.994;2023-05-22T05:57:28;100730.16;;;17.09;100.00
48553;BME280;34335;51.566;6.994;2023-05-22T05:59:54;100728.25;;;17.14;100.00
48553;BME280;34335;51.566;6.994;2023-05-22T06:02:19;100728.09;;;17.19;100.00
48553;BME280;34335;51.566;6.994;2023-05-22T06:04:44;100725.47;;;17.19;100.00
48553;BME280;34335;51.566;6.994;2023-05-22T06:07:14;100727.13;;;17.23;100.00
48553;BME280;34335;51.566;6.994;2023-05-22T06:09:39;100733.78;;;17.35;100.00
48553;BME280;34335;51.566;6.994;2023-05-22T06:12:05;100722.16;;;17.43;100.00
48553;BME280;34335;51.566;6.994;2023-05-22T06:14:30;100728.81;;;17.55;100.00
48553;BME280;34335;51.566;6.994;2023-05-22T06:16:56;100731.13;;;17.66;100.00
48553;BME280;34335;51.566;6.994;2023-05-22T06:19:21;100732.03;;;17.65;100.00
48553;BME280;34335;51.566;6.994;2023-05-22T06:21:46;100740.03;;;17.62;100.00
48553;BME280;34335;51.566;6.994;2023-05-22T06:24:12;100728.88;;;17.54;100.00
48553;BME280;34335;51.566;6.994;2023-05-22T06:26:37;100731.22;;;17.63;100.00
48553;BME280;34335;51.566;6.994;2023-05-22T06:29:02;100728.06;;;17.80;100.00
48553;BME280;34335;51.566;6.994;2023-05-22T06:31:28;100729.66;;;17.86;100.00
48553;BME280;34335;51.566;6.994;2023-05-22T06:33:53;100735.38;;;18.00;100.00
48553;BME280;34335;51.566;6.994;2023-05-22T06:36:19;100736.06;;;18.07;100.00
48553;BME280;34335;51.566;6.994;2023-05-22T06:38:44;100730.59;;;18.13;100.00
48553;BME280;34335;51.566;6.994;2023-05-22T06:41:10;100731.00;;;18.28;100.00
48553;BME280;34335;51.566;6.994;2023-05-22T06:43:35;100739.84;;;18.52;100.00
48553;BME280;34335;51.566;6.994;2023-05-22T06:46:00;100749.69;;;18.47;100.00
48553;BME280;34335;51.566;6.994;2023-05-22T06:48:26;100749.75;;;18.45;100.00
48553;BME280;34335;51.566;6.994;2023-05-22T06:50:51;100748.69;;;18.51;100.00
48553;BME280;34335;51.566;6.994;2023-05-22T06:53:16;100748.63;;;18.52;100.00
48553;BME280;34335;51.566;6.994;2023-05-22T06:55:42;100742.88;;;18.66;100.00
48553;BME280;34335;51.566;6.994;2023-05-22T06:58:07;100749.34;;;18.83;100.00
48553;BME280;34335;51.566;6.994;2023-05-22T07:00:32;100748.63;;;19.05;100.00
48553;BME280;34335;51.566;6.994;2023-05-22T07:02:58;100741.44;;;19.34;100.00
48553;BME280;34335;51.566;6.994;2023-05-22T07:05:23;100748.94;;;19.44;100.00
48553;BME280;34335;51.566;6.994;2023-05-22T07:07:48;100752.47;;;19.43;100.00
48553;BME280;34335;51.566;6.994;2023-05-22T07:10:14;100748.66;;;19.76;100.00
48553;BME280;34335;51.566;6.994;2023-05-22T07:12:39;100748.06;;;19.91;100.00
48553;BME280;34335;51.566;6.994;2023-05-22T07:15:05;100752.47;;;19.91;100.00
48553;BME280;34335;51.566;6.994;2023-05-22T07:17:30;100753.91;;;20.00;100.00
48553;BME280;34335;51.566;6.994;2023-05-22T07:19:56;100760.28;;;20.16;100.00
48553;BME280;34335;51.566;6.994;2023-05-22T07:22:21;100758.38;;;20.20;100.00
48553;BME280;34335;51.566;6.994;2023-05-22T07:24:46;100764.28;;;20.04;100.00
48553;BME280;34335;51.566;6.994;2023-05-22T07:27:12;100761.44;;;20.09;100.00
48553;BME280;34335;51.566;6.994;2023-05-22T07:29:38;100760.47;;;20.34;100.00
48553;BME280;34335;51.566;6.994;2023-05-22T07:32:03;100763.16;;;20.32;100.00
48553;BME280;34335;51.566;6.994;2023-05-22T07:34:28;100761.69;;;20.68;100.00
48553;BME280;34335;51.566;6.994;2023-05-22T07:37:05;100766.75;;;20.95;100.00
48553;BME280;34335;51.566;6.994;2023-05-22T07:39:30;100769.78;;;21.06;100.00
48553;BME280;34335;51.566;6.994;2023-05-22T07:41:56;100753.84;;;21.08;100.00
48553;BME280;34335;51.566;6.994;2023-05-22T07:44:21;100762.63;;;21.29;100.00
48553;BME280;34335;51.566;6.994;2023-05-22T07:46:46;100759.69;;;21.35;100.00
48553;BME280;34335;51.566;6.994;2023-05-22T07:49:12;100763.19;;;20.96;100.00
48553;BME280;34335;51.566;6.994;2023-05-22T07:51:40;100758.00;;;21.53;100.00
48553;BME280;34335;51.566;6.994;2023-05-22T07:54:05;100760.56;;;21.55;100.00
48553;BME280;34335;51.566;6.994;2023-05-22T07:56:32;100762.03;;;21.81;100.00
48553;BME280;34335;51.566;6.994;2023-05-22T07:58:58;100765.31;;;21.86;100.00
48553;BME280;34335;51.566;6.994;2023-05-22T08:01:25;100765.47;;;21.64;100.00
48553;BME280;34335;51.566;6.994;2023-05-22T08:03:50;100760.31;;;21.61;100.00
48553;BME280;34335;51.566;6.994;2023-05-22T08:06:15;100754.84;;;22.02;100.00
48553;BME280;34335;51.566;6.994;2023-05-22T08:08:42;100761.06;;;22.20;100.00
48553;BME280;34335;51.566;6.994;2023-05-22T08:11:07;100759.84;;;22.08;100.00
48553;BME280;34335;51.566;6.994;2023-05-22T08:13:32;100758.63;;;22.16;100.00
48553;BME280;34335;51.566;6.994;2023-05-22T08:15:57;100766.75;;;22.30;100.00
48553;BME280;34335;51.566;6.994;2023-05-22T08:18:23;100767.09;;;22.77;100.00
48553;BME280;34335;51.566;6.994;2023-05-22T08:20:52;100779.09;;;22.49;100.00
48553;BME280;34335;51.566;6.994;2023-05-22T08:23:17;100778.25;;;22.83;100.00
48553;BME280;34335;51.566;6.994;2023-05-22T08:25:43;100770.50;;;23.14;100.00
48553;BME280;34335;51.566;6.994;2023-05-22T08:28:08;100773.69;;;23.54;100.00
48553;BME280;34335;51.566;6.994;2023-05-22T08:30:33;100768.00;;;23.28;100.00
48553;BME280;34335;51.566;6.994;2023-05-22T08:33:01;100771.59;;;23.27;100.00
48553;BME280;34335;51.566;6.994;2023-05-22T08:35:26;100769.00;;;23.59;100.00
48553;BME280;34335;51.566;6.994;2023-05-22T08:37:51;100768.88;;;23.45;100.00
48553;BME280;34335;51.566;6.994;2023-05-22T08:40:18;100772.13;;;23.34;100.00
48553;BME280;34335;51.566;6.994;2023-05-22T08:42:44;100768.34;;;23.22;100.00
48553;BME280;34335;51.566;6.994;2023-05-22T08:45:09;100764.81;;;23.87;100.00
48553;BME280;34335;51.566;6.994;2023-05-22T08:47:36;100765.56;;;23.57;100.00
48553;BME280;34335;51.566;6.994;2023-05-22T08:50:02;100767.56;;;24.02;100.00
48553;BME280;34335;51.566;6.994;2023-05-22T08:52:32;100769.50;;;23.82;100.00
48553;BME280;34335;51.566;6.994;2023-05-22T08:55:02;100767.25;;;23.42;100.00
48553;BME280;34335;51.566;6.994;2023-05-22T08:57:28;100768.06;;;23.60;100.00
48553;BME280;34335;51.566;6.994;2023-05-22T08:59:54;100759.28;;;24.08;100.00
48553;BME280;34335;51.566;6.994;2023-05-22T09:02:19;100757.31;;;23.95;100.00
48553;BME280;34335;51.566;6.994;2023-05-22T09:04:44;100771.66;;;24.23;100.00
48553;BME280;34335;51.566;6.994;2023-05-22T09:07:10;100771.22;;;23.83;100.00
48553;BME280;34335;51.566;6.994;2023-05-22T09:09:37;100768.03;;;24.40;100.00
48553;BME280;34335;51.566;6.994;2023-05-22T09:12:05;100769.09;;;24.38;100.00
48553;BME280;34335;51.566;6.994;2023-05-22T09:14:37;100777.69;;;23.29;100.00
48553;BME280;34335;51.566;6.994;2023-05-22T09:17:04;100768.59;;;24.15;100.00
48553;BME280;34335;51.566;6.994;2023-05-22T09:19:29;100771.78;;;24.06;100.00
48553;BME280;34335;51.566;6.994;2023-05-22T09:22:01;100765.16;;;24.13;100.00
48553;BME280;34335;51.566;6.994;2023-05-22T09:24:27;100767.56;;;24.18;100.00
48553;BME280;34335;51.566;6.994;2023-05-22T09:26:52;100772.78;;;23.87;100.00
48553;BME280;34335;51.566;6.994;2023-05-22T09:29:18;100782.28;;;24.39;100.00
48553;BME280;34335;51.566;6.994;2023-05-22T09:31:43;100779.56;;;24.71;100.00
48553;BME280;34335;51.566;6.994;2023-05-22T09:34:09;100783.50;;;24.18;100.00
48553;BME280;34335;51.566;6.994;2023-05-22T09:36:34;100784.25;;;24.97;100.00
48553;BME280;34335;51.566;6.994;2023-05-22T09:39:01;100787.81;;;24.04;100.00
48553;BME280;34335;51.566;6.994;2023-05-22T09:41:27;100778.00;;;23.73;100.00
48553;BME280;34335;51.566;6.994;2023-05-22T09:43:54;100779.47;;;24.26;100.00
48553;BME280;34335;51.566;6.994;2023-05-22T09:46:20;100788.78;;;24.50;100.00
48553;BME280;34335;51.566;6.994;2023-05-22T09:48:50;100783.13;;;25.01;100.00
48553;BME280;34335;51.566;6.994;2023-05-22T09:51:18;100776.97;;;24.39;100.00
48553;BME280;34335;51.566;6.994;2023-05-22T09:53:47;100785.81;;;25.30;100.00
48553;BME280;34335;51.566;6.994;2023-05-22T09:56:13;100784.66;;;25.05;100.00
48553;BME280;34335;51.566;6.994;2023-05-22T09:58:41;100778.91;;;24.82;100.00
48553;BME280;34335;51.566;6.994;2023-05-22T10:01:07;100778.19;;;25.09;100.00
48553;BME280;34335;51.566;6.994;2023-05-22T10:03:35;100776.44;;;24.33;100.00
48553;BME280;34335;51.566;6.994;2023-05-22T10:06:02;100780.59;;;24.69;100.00
48553;BME280;34335;51.566;6.994;2023-05-22T10:08:34;100776.25;;;25.83;100.00
48553;BME280;34335;51.566;6.994;2023-05-22T10:11:01;100780.28;;;25.04;100.00
48553;BME280;34335;51.566;6.994;2023-05-22T10:13:27;100786.56;;;24.42;100.00
48553;BME280;34335;51.566;6.994;2023-05-22T10:15:53;100782.97;;;25.33;100.00
48553;BME280;34335;51.566;6.994;2023-05-22T10:18:19;100787.31;;;25.19;100.00
48553;BME280;34335;51.566;6.994;2023-05-22T10:20:44;100780.34;;;25.02;100.00
48553;BME280;34335;51.566;6.994;2023-05-22T10:23:13;100781.03;;;25.78;100.00
48553;BME280;34335;51.566;6.994;2023-05-22T10:25:40;100773.06;;;25.78;100.00
48553;BME280;34335;51.566;6.994;2023-05-22T10:28:06;100775.53;;;25.38;100.00
48553;BME280;34335;51.566;6.994;2023-05-22T10:33:10;100774.78;;;26.34;100.00
48553;BME280;34335;51.566;6.994;2023-05-22T10:35:42;100785.28;;;25.54;100.00
48553;BME280;34335;51.566;6.994;2023-05-22T10:39:00;100775.16;;;25.30;100.00
48553;BME280;34335;51.566;6.994;2023-05-22T10:41:29;100774.47;;;25.70;100.00
48553;BME280;34335;51.566;6.994;2023-05-22T10:43:55;100778.47;;;25.33;100.00
48553;BME280;34335;51.566;6.994;2023-05-22T10:46:20;100766.28;;;25.87;100.00
48553;BME280;34335;51.566;6.994;2023-05-22T10:48:47;100770.91;;;25.98;100.00
48553;BME280;34335;51.566;6.994;2023-05-22T10:51:14;100782.31;;;26.00;100.00
48553;BME280;34335;51.566;6.994;2023-05-22T10:53:42;100766.88;;;26.20;100.00
48553;BME280;34335;51.566;6.994;2023-05-22T10:56:13;100773.78;;;26.50;100.00
48553;BME280;34335;51.566;6.994;2023-05-22T10:58:42;100769.66;;;26.31;100.00
48553;BME280;34335;51.566;6.994;2023-05-22T11:01:16;100776.13;;;25.72;100.00
48553;BME280;34335;51.566;6.994;2023-05-22T11:03:52;100773.41;;;25.87;100.00
48553;BME280;34335;51.566;6.994;2023-05-22T11:09:28;100766.13;;;26.03;100.00
48553;BME280;34335;51.566;6.994;2023-05-22T11:12:17;100772.16;;;25.92;100.00
48553;BME280;34335;51.566;6.994;2023-05-22T11:17:23;100766.22;;;26.69;100.00
48553;BME280;34335;51.566;6.994;2023-05-22T11:20:00;100764.75;;;26.25;100.00
48553;BME280;34335;51.566;6.994;2023-05-22T11:22:34;100767.94;;;25.46;100.00
48553;BME280;34335;51.566;6.994;2023-05-22T11:25:04;100755.78;;;26.26;100.00
48553;BME280;34335;51.566;6.994;2023-05-22T11:27:29;100749.25;;;26.70;100.00
48553;BME280;34335;51.566;6.994;2023-05-22T11:29:55;100761.03;;;26.94;100.00
48553;BME280;34335;51.566;6.994;2023-05-22T11:32:22;100762.34;;;26.88;100.00
48553;BME280;34335;51.566;6.994;2023-05-22T11:34:48;100755.50;;;26.97;100.00
48553;BME280;34335;51.566;6.994;2023-05-22T11:37:16;100754.50;;;26.59;100.00
48553;BME280;34335;51.566;6.994;2023-05-22T11:39:46;100759.53;;;26.77;100.00
48553;BME280;34335;51.566;6.994;2023-05-22T11:42:13;100742.66;;;28.15;99.97
48553;BME280;34335;51.566;6.994;2023-05-22T11:44:39;100757.34;;;26.83;100.00
48553;BME280;34335;51.566;6.994;2023-05-22T11:47:05;100763.72;;;26.40;100.00
48553;BME280;34335;51.566;6.994;2023-05-22T11:49:31;100755.09;;;25.95;100.00
48553;BME280;34335;51.566;6.994;2023-05-22T11:51:56;100757.66;;;27.04;100.00
48553;BME280;34335;51.566;6.994;2023-05-22T11:54:21;100752.31;;;27.67;100.00
48553;BME280;34335;51.566;6.994;2023-05-22T11:56:47;100756.31;;;27.86;94.12
48553;BME280;34335;51.566;6.994;2023-05-22T11:59:12;100756.97;;;27.52;99.97
48553;BME280;34335;51.566;6.994;2023-05-22T12:01:37;100746.72;;;27.33;100.00
48553;BME280;34335;51.566;6.994;2023-05-22T12:04:03;100743.88;;;26.85;100.00
48553;BME280;34335;51.566;6.994;2023-05-22T12:06:29;100735.38;;;27.43;100.00
48553;BME280;34335;51.566;6.994;2023-05-22T12:08:58;100746.72;;;27.33;100.00
48553;BME280;34335;51.566;6.994;2023-05-22T12:11:25;100743.44;;;27.80;98.51
48553;BME280;34335;51.566;6.994;2023-05-22T12:13:59;100744.94;;;26.82;100.00
48553;BME280;34335;51.566;6.994;2023-05-22T12:16:24;100728.97;;;28.07;96.89
48553;BME280;34335;51.566;6.994;2023-05-22T12:18:51;100735.50;;;27.41;100.00
48553;BME280;34335;51.566;6.994;2023-05-22T12:21:18;100730.50;;;29.05;100.00
48553;BME280;34335;51.566;6.994;2023-05-22T12:23:50;100729.09;;;28.65;96.86
48553;BME280;34335;51.566;6.994;2023-05-22T12:26:16;100728.78;;;28.92;100.00
48553;BME280;34335;51.566;6.994;2023-05-22T12:28:42;100729.81;;;28.67;99.49
48553;BME280;34335;51.566;6.994;2023-05-22T12:31:08;100733.53;;;27.69;97.72
48553;BME280;34335;51.566;6.994;2023-05-22T12:33:33;100743.75;;;26.99;100.00
48553;BME280;34335;51.566;6.994;2023-05-22T12:35:58;100735.66;;;27.14;99.58
48553;BME280;34335;51.566;6.994;2023-05-22T12:38:30;100726.59;;;27.03;100.00
48553;BME280;34335;51.566;6.994;2023-05-22T12:40:56;100728.69;;;26.98;100.00
48553;BME280;34335;51.566;6.994;2023-05-22T12:43:22;100723.53;;;27.84;100.00
48553;BME280;34335;51.566;6.994;2023-05-22T12:45:48;100721.13;;;28.41;95.42
48553;BME280;34335;51.566;6.994;2023-05-22T12:48:14;100722.94;;;27.67;93.55
48553;BME280;34335;51.566;6.994;2023-05-22T12:50:40;100716.84;;;28.74;99.52